Tempête à Tunis : un avion de ULS Airlines Cargo endommagé au sol

By juin 05, 2017 1532 0

Un avion cargo de la compagnie aérienne ULS Airlines Cargo a été heurté par des palettes de transport de marchandise à l'aéroport de Tunis Carthage, en raison de vent fort lors d'une tempête, ce lundi 5 juin.

L'Airbus A310, immatriculé TC-VEL, qui devait effectuer le vol cargo TK6332 pour le compte de Turkish Airlines entre Tunis et Istanbul, était au parking à l'aéroport lorsqu'il a été heurté par des palettes jetées par le vent violent lors d'une tempête.

L'avion est toujours immobilisé à Tunis.

METAR DTTA 051730Z 28017KT 240V300 7000 -TSRA SCT026 FEW030CB 17/16 Q1013 NOSIG=

METAR DTTA 051700Z 25018KT 200V270 4000 -TSSHRA SCT026 FEW030CB 17/17 Q1013 NOSIG=

METAR DTTA 051630Z 24018G28KT 7000 -TSRA SCT026 FEW030CB 16/15 Q1013 NOSIG=

METAR DTTA 051600Z 31017G32KT 280V340 9999 SQ TS SCT026 FEW030CB 24/15 Q1009 NOSIG=

 

TAF DTTA 051708Z 0518/0618 27018KT 9999 SCT026
         TEMPO 0518/0612 3000 -RA FEW030CB
         TEMPO 0518/0524 VRB43KT 1500 TSSHRA FEW023CB=

Latest Tweets

Safe Flight Academy deploie un avion gratuitement à la recherche du marin perdu. La première mission a duré 4h de v… https://t.co/2b2wkM4vCp
Nouvelair Tunisie https://t.co/YgTj3hG0Sk
Olivier Van Aken, nouveau Directeur Général d'Express Air Cargo https://t.co/xVgNvnKy5A
Follow AeroTunisie.com on Twitter

Post Gallery

Classement des meilleures compagnies aériennes en 2017

Voyagez dans plus de 120 pays grâce à votre passeport tunisien!

Tunisair lance sa promotion Septembre 2017

Qatar Airways recrute à Tunis le 21 mai 2017

Création de "Maghreb Airlines", une nouvelle compagnie aérienne tunisienne

Aéroport de Monastir : des pilotes se plaignent de manquements à la sécurité

Aéroport de Tunis Carthage : Circulez, il n'y a plus rien à voir !

Décès du pilote dans le crash d'un ULM de la Société Tunisienne des Travaux Aériens

Nouvelair recrute des pilotes de ligne

© 2018 AeroTunisie All Rights Reserved.